Mr. Cass — WDB5593 — position and weather

sailwx.info

Track history (hours):
 
Tides and Currents Weather Stations Pressure Air Temp Water Temp Dewpoint Dewpoint Depression Visibility Wind Speed Wind Dir Waves Ship Positions

Mr. Cass

Owner: Cass Marine Towing LLC, Marrero, LA. More information available from US FCC via Universal Licensing System and Coast Guard Vessel Documentation Center.

Last reported at 2015-Mar-18 12:25 UTC. Time now 2015-Apr-02 00:11 UTC.
Position N 29°55' W 090°09'.
Warning: this ship's position is 14 days out of date.

Length 17 m; draft 3.5 m.

Type: Towing. MMSI: 366911310.

Date/timePositionNaut miles runAvg speedWind from/ knotsBaromVisibWave heightAir tempDewpointWater temp
2015-Mar-18 12:25N 29°55' W 090°09'0 0.0
2015-Mar-18 11:15N 29°55' W 090°09'0 0.0
2015-Mar-18 10:25N 29°55' W 090°09'0 0.0
2015-Mar-18 09:27N 29°55' W 090°09'0 0.0
2015-Mar-18 08:31N 29°55' W 090°09'0 0.0
2015-Mar-18 07:33N 29°55' W 090°09'0 0.0
2015-Mar-18 06:31N 29°55' W 090°09'0 0.0
2015-Mar-18 05:33N 29°55' W 090°09'0 0.0
2015-Mar-18 04:27N 29°55' W 090°09'0 0.0
2015-Mar-18 03:32N 29°55' W 090°09'0 0.0
2015-Mar-18 02:32N 29°55' W 090°09'0 0.0
2015-Mar-18 01:29N 29°55' W 090°09'0 0.0
2015-Mar-18 00:31N 29°55' W 090°09'0 0.0
2015-Mar-17 23:33N 29°55' W 090°09'0 0.1
2015-Mar-17 22:32N 29°55' W 090°08'2 0.0
2015-Mar-16 13:18N 29°57' W 090°08'3 2.8
2015-Mar-16 12:22N 29°54' W 090°07'0 0.0
2015-Mar-16 11:24N 29°54' W 090°07'0 0.0
2015-Mar-16 10:29N 29°54' W 090°07'0 0.0
2015-Mar-16 09:32N 29°54' W 090°07'0 0.0
2015-Mar-16 08:31N 29°54' W 090°07'0 0.0
2015-Mar-16 07:30N 29°54' W 090°07'0 0.0
2015-Mar-16 06:30N 29°54' W 090°07'0 0.0
2015-Mar-16 05:29N 29°54' W 090°07'0 0.0
2015-Mar-16 04:33N 29°54' W 090°07'0 0.0
2015-Mar-16 03:33N 29°54' W 090°07'0 0.0
2015-Mar-16 02:33N 29°54' W 090°07'0 0.0
2015-Mar-16 01:33N 29°54' W 090°07'0 0.0
2015-Mar-16 00:33N 29°54' W 090°07'1 0.7
2015-Mar-15 23:32N 29°54' W 090°06'3 2.7
2015-Mar-15 22:33N 29°55' W 090°04'4 3.1
2015-Mar-15 21:25N 29°54' W 090°08'0 0.0
2015-Mar-15 20:18N 29°54' W 090°08'0 0.0
2015-Mar-15 19:32N 29°54' W 090°08'0 0.1
2015-Mar-15 18:20N 29°54' W 090°07'  
2015-Mar-13 09:12N 29°55' W 090°08'0 0.0
2015-Mar-13 08:29N 29°55' W 090°08'0 0.0
2015-Mar-13 06:14N 29°55' W 090°08'0 0.0
2015-Mar-13 05:28N 29°55' W 090°08'0 0.0
2015-Mar-13 04:05N 29°55' W 090°08'0 0.0
2015-Mar-13 00:21N 29°55' W 090°08'0 0.0
2015-Mar-12 23:25N 29°55' W 090°08'0 0.0
2015-Mar-12 22:33N 29°55' W 090°08'2 1.8
2015-Mar-12 21:23N 29°57' W 090°10'1 0.6
2015-Mar-12 19:18N 29°57' W 090°08'3 3.5
2015-Mar-12 18:32N 29°55' W 090°07'0 0.4
2015-Mar-12 17:32N 29°54' W 090°06'0 0.0
2015-Mar-12 16:32N 29°54' W 090°06'0 0.0
2015-Mar-12 15:18N 29°54' W 090°06'0 0.0
2015-Mar-12 14:11N 29°54' W 090°06'0 0.0
2015-Mar-12 13:06N 29°54' W 090°06'0 0.0
2015-Mar-12 12:30N 29°54' W 090°06'0 0.0
2015-Mar-12 11:21N 29°54' W 090°06'0 0.0
2015-Mar-12 00:18N 29°54' W 090°06'4 1.0
2015-Mar-11 20:24N 29°57' W 090°10'3 1.7
2015-Mar-11 18:32N 29°54' W 090°07'0 0.0
2015-Mar-11 17:29N 29°54' W 090°07'0 0.0
2015-Mar-10 13:32N 29°54' W 090°07'0 0.0
2015-Mar-10 12:23N 29°54' W 090°07'0 0.0
2015-Mar-10 03:18N 29°54' W 090°07'0 0.0
2015-Mar-10 02:07N 29°54' W 090°07'0 0.0
2015-Mar-10 01:31N 29°54' W 090°07'0 0.0
2015-Mar-10 00:27N 29°54' W 090°07'0 0.0
2015-Mar-09 23:33N 29°54' W 090°07'0 0.0
2015-Mar-09 22:28N 29°54' W 090°07'0 0.0
2015-Mar-09 21:33N 29°54' W 090°07'0 0.0
2015-Mar-09 20:33N 29°54' W 090°07'0 0.0
2015-Mar-09 19:22N 29°54' W 090°07'0 0.0
2015-Mar-09 18:33N 29°54' W 090°07'0 0.0
2015-Mar-09 17:33N 29°54' W 090°07'0 0.0
2015-Mar-09 16:33N 29°54' W 090°07'0 0.0
2015-Mar-09 15:31N 29°54' W 090°07'0 0.0
2015-Mar-09 14:32N 29°54' W 090°07'0 0.0
2015-Mar-09 13:03N 29°54' W 090°07'0 0.0
2015-Mar-09 12:29N 29°54' W 090°07'0 0.0
2015-Mar-09 11:28N 29°54' W 090°07'0 0.0
2015-Mar-09 10:31N 29°54' W 090°07'0 0.0
2015-Mar-09 09:30N 29°54' W 090°07'0 0.0
2015-Mar-09 08:31N 29°54' W 090°07'0 0.0
2015-Mar-09 07:14N 29°54' W 090°07'  
Track history (hours):
 
Tides and Currents Weather Stations Pressure Air Temp Water Temp Dewpoint Dewpoint Depression Visibility Wind Speed Wind Dir Waves Ship Positions

Mr. Cass

Owner: Cass Marine Towing LLC, Marrero, LA. More information available from US FCC via Universal Licensing System and Coast Guard Vessel Documentation Center.

Last reported at 2015-Mar-18 12:25 UTC. Time now 2015-Apr-02 00:11 UTC.
Position N 29°55' W 090°09'.
Warning: this ship's position is 14 days out of date.

Length 17 m; draft 3.5 m.

Type: Towing. MMSI: 366911310.

Date/timePositionNaut miles runAvg speedWind from/ knotsBaromVisibWave heightAir tempDewpointWater temp
2015-Mar-18 12:25N 29°55' W 090°09'0 0.0
2015-Mar-18 11:15N 29°55' W 090°09'0 0.0
2015-Mar-18 10:25N 29°55' W 090°09'0 0.0
2015-Mar-18 09:27N 29°55' W 090°09'0 0.0
2015-Mar-18 08:31N 29°55' W 090°09'0 0.0
2015-Mar-18 07:33N 29°55' W 090°09'0 0.0
2015-Mar-18 06:31N 29°55' W 090°09'0 0.0
2015-Mar-18 05:33N 29°55' W 090°09'0 0.0
2015-Mar-18 04:27N 29°55' W 090°09'0 0.0
2015-Mar-18 03:32N 29°55' W 090°09'0 0.0
2015-Mar-18 02:32N 29°55' W 090°09'0 0.0
2015-Mar-18 01:29N 29°55' W 090°09'0 0.0
2015-Mar-18 00:31N 29°55' W 090°09'0 0.0
2015-Mar-17 23:33N 29°55' W 090°09'0 0.1
2015-Mar-17 22:32N 29°55' W 090°08'2 0.0
2015-Mar-16 13:18N 29°57' W 090°08'3 2.8
2015-Mar-16 12:22N 29°54' W 090°07'0 0.0
2015-Mar-16 11:24N 29°54' W 090°07'0 0.0
2015-Mar-16 10:29N 29°54' W 090°07'0 0.0
2015-Mar-16 09:32N 29°54' W 090°07'0 0.0
2015-Mar-16 08:31N 29°54' W 090°07'0 0.0
2015-Mar-16 07:30N 29°54' W 090°07'0 0.0
2015-Mar-16 06:30N 29°54' W 090°07'0 0.0
2015-Mar-16 05:29N 29°54' W 090°07'0 0.0
2015-Mar-16 04:33N 29°54' W 090°07'0 0.0
2015-Mar-16 03:33N 29°54' W 090°07'0 0.0
2015-Mar-16 02:33N 29°54' W 090°07'0 0.0
2015-Mar-16 01:33N 29°54' W 090°07'0 0.0
2015-Mar-16 00:33N 29°54' W 090°07'1 0.7
2015-Mar-15 23:32N 29°54' W 090°06'3 2.7
2015-Mar-15 22:33N 29°55' W 090°04'4 3.1
2015-Mar-15 21:25N 29°54' W 090°08'0 0.0
2015-Mar-15 20:18N 29°54' W 090°08'0 0.0
2015-Mar-15 19:32N 29°54' W 090°08'0 0.1
2015-Mar-15 18:20N 29°54' W 090°07'  
2015-Mar-13 09:12N 29°55' W 090°08'0 0.0
2015-Mar-13 08:29N 29°55' W 090°08'0 0.0
2015-Mar-13 06:14N 29°55' W 090°08'0 0.0
2015-Mar-13 05:28N 29°55' W 090°08'0 0.0
2015-Mar-13 04:05N 29°55' W 090°08'0 0.0
2015-Mar-13 00:21N 29°55' W 090°08'0 0.0
2015-Mar-12 23:25N 29°55' W 090°08'0 0.0
2015-Mar-12 22:33N 29°55' W 090°08'2 1.8
2015-Mar-12 21:23N 29°57' W 090°10'1 0.6
2015-Mar-12 19:18N 29°57' W 090°08'3 3.5
2015-Mar-12 18:32N 29°55' W 090°07'0 0.4
2015-Mar-12 17:32N 29°54' W 090°06'0 0.0
2015-Mar-12 16:32N 29°54' W 090°06'0 0.0
2015-Mar-12 15:18N 29°54' W 090°06'0 0.0
2015-Mar-12 14:11N 29°54' W 090°06'0 0.0
2015-Mar-12 13:06N 29°54' W 090°06'0 0.0
2015-Mar-12 12:30N 29°54' W 090°06'0 0.0
2015-Mar-12 11:21N 29°54' W 090°06'0 0.0
2015-Mar-12 00:18N 29°54' W 090°06'4 1.0
2015-Mar-11 20:24N 29°57' W 090°10'3 1.7
2015-Mar-11 18:32N 29°54' W 090°07'0 0.0
2015-Mar-11 17:29N 29°54' W 090°07'0 0.0
2015-Mar-10 13:32N 29°54' W 090°07'0 0.0
2015-Mar-10 12:23N 29°54' W 090°07'0 0.0
2015-Mar-10 03:18N 29°54' W 090°07'0 0.0
2015-Mar-10 02:07N 29°54' W 090°07'0 0.0
2015-Mar-10 01:31N 29°54' W 090°07'0 0.0
2015-Mar-10 00:27N 29°54' W 090°07'0 0.0
2015-Mar-09 23:33N 29°54' W 090°07'0 0.0
2015-Mar-09 22:28N 29°54' W 090°07'0 0.0
2015-Mar-09 21:33N 29°54' W 090°07'0 0.0
2015-Mar-09 20:33N 29°54' W 090°07'0 0.0
2015-Mar-09 19:22N 29°54' W 090°07'0 0.0
2015-Mar-09 18:33N 29°54' W 090°07'0 0.0
2015-Mar-09 17:33N 29°54' W 090°07'0 0.0
2015-Mar-09 16:33N 29°54' W 090°07'0 0.0
2015-Mar-09 15:31N 29°54' W 090°07'0 0.0
2015-Mar-09 14:32N 29°54' W 090°07'0 0.0
2015-Mar-09 13:03N 29°54' W 090°07'0 0.0
2015-Mar-09 12:29N 29°54' W 090°07'0 0.0
2015-Mar-09 11:28N 29°54' W 090°07'0 0.0
2015-Mar-09 10:31N 29°54' W 090°07'0 0.0
2015-Mar-09 09:30N 29°54' W 090°07'0 0.0
2015-Mar-09 08:31N 29°54' W 090°07'0 0.0
2015-Mar-09 07:14N 29°54' W 090°07'  

Dump ship's entire track history